Terminal Aerodrome Forecast
Issued by NWS

Home | Current Version | Previous Version | Text Only | Print | Product List | Glossary On
Versions: 1 2 3 4 5 6 7 8 9 10 11 12 13 14 15 16 17 18 19
000
FTUS46 KEKA 212320
TAFCEC
TAF
KCEC 212320Z 2200/2224 16013G23KT 6SM HZ VCSH FEW020 BKN030 OVC040
     FM220400 16020G30KT 6SM -RA BR SCT025 OVC050 WS020/18050KT
     FM220700 16030G50KT 4SM RA BR SCT015 OVC025 WS020/14060KT
     FM221100 19020G30KT 6SM -SHRA BR SCT020 OVC040=

USA.gov is the U.S. government's official web portal to all federal, state and local government web resources and services.